sensor_id;sensor_type;location;lat;lon;timestamp;pressure;altitude;pressure_sealevel;temperature
20730;BMP280;10526;50.850;12.928;2023-05-16T00:01:38;97471.06;;;9.95
20730;BMP280;10526;50.850;12.928;2023-05-16T00:06:00;97467.94;;;10.00
20730;BMP280;10526;50.850;12.928;2023-05-16T00:10:23;97475.06;;;10.06
20730;BMP280;10526;50.850;12.928;2023-05-16T00:14:45;97470.91;;;10.05
20730;BMP280;10526;50.850;12.928;2023-05-16T00:19:08;97467.06;;;10.06
20730;BMP280;10526;50.850;12.928;2023-05-16T00:23:33;97478.16;;;10.01
20730;BMP280;10526;50.850;12.928;2023-05-16T00:27:56;97471.91;;;9.88
20730;BMP280;10526;50.850;12.928;2023-05-16T00:32:18;97484.09;;;9.82
20730;BMP280;10526;50.850;12.928;2023-05-16T00:36:40;97480.44;;;9.72
20730;BMP280;10526;50.850;12.928;2023-05-16T00:41:02;97480.44;;;9.72
20730;BMP280;10526;50.850;12.928;2023-05-16T00:45:25;97485.41;;;9.70
20730;BMP280;10526;50.850;12.928;2023-05-16T00:49:47;97487.00;;;9.64
20730;BMP280;10526;50.850;12.928;2023-05-16T00:54:10;97496.44;;;9.69
20730;BMP280;10526;50.850;12.928;2023-05-16T00:58:33;97494.22;;;9.64
20730;BMP280;10526;50.850;12.928;2023-05-16T01:02:56;97504.25;;;9.52
20730;BMP280;10526;50.850;12.928;2023-05-16T01:07:18;97501.22;;;9.50
20730;BMP280;10526;50.850;12.928;2023-05-16T01:17:19;97497.63;;;9.30
20730;BMP280;10526;50.850;12.928;2023-05-16T01:22:05;97501.41;;;9.29
20730;BMP280;10526;50.850;12.928;2023-05-16T01:26:30;97497.72;;;9.23
20730;BMP280;10526;50.850;12.928;2023-05-16T01:30:54;97507.28;;;9.13
20730;BMP280;10526;50.850;12.928;2023-05-16T01:35:17;97509.25;;;9.06
20730;BMP280;10526;50.850;12.928;2023-05-16T01:39:55;97506.25;;;9.04
20730;BMP280;10526;50.850;12.928;2023-05-16T01:44:27;97512.72;;;9.02
20730;BMP280;10526;50.850;12.928;2023-05-16T01:53:38;97521.13;;;8.90
20730;BMP280;10526;50.850;12.928;2023-05-16T01:58:03;97517.00;;;8.86
20730;BMP280;10526;50.850;12.928;2023-05-16T02:02:25;97532.19;;;8.85
20730;BMP280;10526;50.850;12.928;2023-05-16T02:06:47;97537.38;;;8.99
20730;BMP280;10526;50.850;12.928;2023-05-16T02:11:10;97539.00;;;9.27
20730;BMP280;10526;50.850;12.928;2023-05-16T02:15:32;97542.91;;;9.57
20730;BMP280;10526;50.850;12.928;2023-05-16T02:19:54;97539.56;;;9.83
20730;BMP280;10526;50.850;12.928;2023-05-16T02:24:16;97548.38;;;10.07
20730;BMP280;10526;50.850;12.928;2023-05-16T02:28:38;97549.72;;;10.23
20730;BMP280;10526;50.850;12.928;2023-05-16T02:33:00;97546.88;;;10.37
20730;BMP280;10526;50.850;12.928;2023-05-16T02:37:24;97550.19;;;10.45
20730;BMP280;10526;50.850;12.928;2023-05-16T02:41:45;97543.97;;;10.51
20730;BMP280;10526;50.850;12.928;2023-05-16T02:46:29;97540.41;;;10.61
20730;BMP280;10526;50.850;12.928;2023-05-16T02:50:54;97552.88;;;10.68
20730;BMP280;10526;50.850;12.928;2023-05-16T02:55:16;97551.97;;;10.75
20730;BMP280;10526;50.850;12.928;2023-05-16T02:59:44;97551.19;;;10.78
20730;BMP280;10526;50.850;12.928;2023-05-16T03:04:06;97555.28;;;10.82
20730;BMP280;10526;50.850;12.928;2023-05-16T03:08:29;97563.28;;;10.82
20730;BMP280;10526;50.850;12.928;2023-05-16T03:12:52;97564.06;;;10.83
20730;BMP280;10526;50.850;12.928;2023-05-16T03:17:16;97554.91;;;10.84
20730;BMP280;10526;50.850;12.928;2023-05-16T03:21:39;97557.94;;;10.82
20730;BMP280;10526;50.850;12.928;2023-05-16T03:26:01;97567.53;;;10.80
20730;BMP280;10526;50.850;12.928;2023-05-16T03:30:24;97583.91;;;10.78
20730;BMP280;10526;50.850;12.928;2023-05-16T03:34:47;97582.38;;;10.81
20730;BMP280;10526;50.850;12.928;2023-05-16T03:39:09;97586.84;;;10.87
20730;BMP280;10526;50.850;12.928;2023-05-16T03:43:32;97593.56;;;10.96
20730;BMP280;10526;50.850;12.928;2023-05-16T03:47:54;97599.09;;;11.05
20730;BMP280;10526;50.850;12.928;2023-05-16T03:52:17;97601.19;;;11.17
20730;BMP280;10526;50.850;12.928;2023-05-16T03:56:39;97607.88;;;11.29
20730;BMP280;10526;50.850;12.928;2023-05-16T04:01:01;97618.84;;;11.31
20730;BMP280;10526;50.850;12.928;2023-05-16T04:05:23;97621.84;;;11.36
20730;BMP280;10526;50.850;12.928;2023-05-16T04:09:46;97621.69;;;11.43
20730;BMP280;10526;50.850;12.928;2023-05-16T04:14:08;97633.03;;;11.47
20730;BMP280;10526;50.850;12.928;2023-05-16T04:18:30;97641.03;;;11.47
20730;BMP280;10526;50.850;12.928;2023-05-16T04:22:52;97644.84;;;11.46
20730;BMP280;10526;50.850;12.928;2023-05-16T04:27:14;97652.47;;;11.48
20730;BMP280;10526;50.850;12.928;2023-05-16T04:31:36;97665.03;;;11.47
20730;BMP280;10526;50.850;12.928;2023-05-16T04:35:58;97670.09;;;11.42
20730;BMP280;10526;50.850;12.928;2023-05-16T04:40:21;97678.63;;;11.33
20730;BMP280;10526;50.850;12.928;2023-05-16T04:44:43;97685.97;;;11.26
20730;BMP280;10526;50.850;12.928;2023-05-16T04:49:05;97693.38;;;11.38
20730;BMP280;10526;50.850;12.928;2023-05-16T04:53:27;97686.34;;;11.47
20730;BMP280;10526;50.850;12.928;2023-05-16T04:57:49;97701.22;;;11.72
20730;BMP280;10526;50.850;12.928;2023-05-16T05:02:11;97699.06;;;12.06
20730;BMP280;10526;50.850;12.928;2023-05-16T05:06:33;97708.63;;;12.24
20730;BMP280;10526;50.850;12.928;2023-05-16T05:10:56;97720.47;;;12.43
20730;BMP280;10526;50.850;12.928;2023-05-16T05:15:18;97723.59;;;12.57
20730;BMP280;10526;50.850;12.928;2023-05-16T05:19:40;97735.44;;;12.56
20730;BMP280;10526;50.850;12.928;2023-05-16T05:24:02;97737.84;;;12.51
20730;BMP280;10526;50.850;12.928;2023-05-16T05:28:25;97744.59;;;12.59
20730;BMP280;10526;50.850;12.928;2023-05-16T05:32:47;97734.00;;;12.72
20730;BMP280;10526;50.850;12.928;2023-05-16T05:37:10;97739.06;;;12.66
20730;BMP280;10526;50.850;12.928;2023-05-16T05:41:32;97738.78;;;12.60
20730;BMP280;10526;50.850;12.928;2023-05-16T05:45:54;97744.59;;;12.59
20730;BMP280;10526;50.850;12.928;2023-05-16T05:50:17;97751.00;;;12.42
20730;BMP280;10526;50.850;12.928;2023-05-16T05:54:39;97764.13;;;12.13
20730;BMP280;10526;50.850;12.928;2023-05-16T05:59:01;97771.84;;;11.64
20730;BMP280;10526;50.850;12.928;2023-05-16T06:03:24;97762.75;;;11.34
20730;BMP280;10526;50.850;12.928;2023-05-16T06:07:46;97769.03;;;11.20
20730;BMP280;10526;50.850;12.928;2023-05-16T06:12:09;97771.47;;;11.11
20730;BMP280;10526;50.850;12.928;2023-05-16T06:16:31;97779.88;;;11.10
20730;BMP280;10526;50.850;12.928;2023-05-16T06:20:53;97782.28;;;11.28
20730;BMP280;10526;50.850;12.928;2023-05-16T06:25:15;97785.56;;;11.62
20730;BMP280;10526;50.850;12.928;2023-05-16T06:29:37;97786.72;;;11.85
20730;BMP280;10526;50.850;12.928;2023-05-16T06:34:00;97793.22;;;11.84
20730;BMP280;10526;50.850;12.928;2023-05-16T06:38:21;97794.38;;;11.59
20730;BMP280;10526;50.850;12.928;2023-05-16T06:42:44;97795.75;;;11.44
20730;BMP280;10526;50.850;12.928;2023-05-16T06:47:06;97801.69;;;11.28
20730;BMP280;10526;50.850;12.928;2023-05-16T06:51:28;97787.81;;;11.13
20730;BMP280;10526;50.850;12.928;2023-05-16T06:55:50;97790.53;;;11.10
20730;BMP280;10526;50.850;12.928;2023-05-16T07:00:13;97795.69;;;11.20
20730;BMP280;10526;50.850;12.928;2023-05-16T07:04:35;97808.53;;;11.29
20730;BMP280;10526;50.850;12.928;2023-05-16T07:08:59;97811.59;;;11.55
20730;BMP280;10526;50.850;12.928;2023-05-16T07:13:21;97806.41;;;11.71
20730;BMP280;10526;50.850;12.928;2023-05-16T07:17:43;97798.44;;;11.91
20730;BMP280;10526;50.850;12.928;2023-05-16T07:22:05;97791.94;;;11.92
20730;BMP280;10526;50.850;12.928;2023-05-16T07:26:27;97789.34;;;11.88
20730;BMP280;10526;50.850;12.928;2023-05-16T07:30:50;97793.88;;;11.91
20730;BMP280;10526;50.850;12.928;2023-05-16T07:35:12;97790.91;;;12.09
20730;BMP280;10526;50.850;12.928;2023-05-16T07:39:34;97795.94;;;12.03
20730;BMP280;10526;50.850;12.928;2023-05-16T07:43:56;97804.25;;;12.09
20730;BMP280;10526;50.850;12.928;2023-05-16T07:48:18;97810.00;;;12.07
20730;BMP280;10526;50.850;12.928;2023-05-16T07:52:40;97828.06;;;11.96
20730;BMP280;10526;50.850;12.928;2023-05-16T07:57:03;97834.59;;;11.95
20730;BMP280;10526;50.850;12.928;2023-05-16T08:01:25;97818.00;;;12.07
20730;BMP280;10526;50.850;12.928;2023-05-16T08:05:48;97808.69;;;12.16
20730;BMP280;10526;50.850;12.928;2023-05-16T08:10:10;97804.66;;;12.07
20730;BMP280;10526;50.850;12.928;2023-05-16T08:14:34;97810.28;;;12.13
20730;BMP280;10526;50.850;12.928;2023-05-16T08:18:58;97813.72;;;12.33
20730;BMP280;10526;50.850;12.928;2023-05-16T08:23:19;97815.34;;;12.27
20730;BMP280;10526;50.850;12.928;2023-05-16T08:27:43;97827.28;;;12.23
20730;BMP280;10526;50.850;12.928;2023-05-16T08:32:08;97843.69;;;12.21
20730;BMP280;10526;50.850;12.928;2023-05-16T08:36:31;97858.06;;;12.04
20730;BMP280;10526;50.850;12.928;2023-05-16T08:40:56;97855.09;;;12.02
20730;BMP280;10526;50.850;12.928;2023-05-16T08:45:18;97859.94;;;12.07
20730;BMP280;10526;50.850;12.928;2023-05-16T08:49:43;97865.66;;;12.09
20730;BMP280;10526;50.850;12.928;2023-05-16T08:54:11;97866.59;;;12.19
20730;BMP280;10526;50.850;12.928;2023-05-16T08:58:35;97872.94;;;12.28
20730;BMP280;10526;50.850;12.928;2023-05-16T09:02:58;97869.47;;;12.31
20730;BMP280;10526;50.850;12.928;2023-05-16T09:07:19;97875.56;;;12.32
20730;BMP280;10526;50.850;12.928;2023-05-16T09:11:42;97876.31;;;12.32
20730;BMP280;10526;50.850;12.928;2023-05-16T09:16:12;97871.44;;;12.47
20730;BMP280;10526;50.850;12.928;2023-05-16T09:20:34;97864.28;;;12.64
20730;BMP280;10526;50.850;12.928;2023-05-16T09:24:59;97875.06;;;12.80
20730;BMP280;10526;50.850;12.928;2023-05-16T09:29:21;97890.66;;;13.02
20730;BMP280;10526;50.850;12.928;2023-05-16T09:33:43;97896.34;;;13.04
20730;BMP280;10526;50.850;12.928;2023-05-16T09:38:05;97891.28;;;13.09
20730;BMP280;10526;50.850;12.928;2023-05-16T09:42:34;97895.69;;;13.00
20730;BMP280;10526;50.850;12.928;2023-05-16T09:46:56;97911.84;;;12.93
20730;BMP280;10526;50.850;12.928;2023-05-16T09:51:21;97917.63;;;12.91
20730;BMP280;10526;50.850;12.928;2023-05-16T09:55:44;97912.75;;;13.06
20730;BMP280;10526;50.850;12.928;2023-05-16T10:00:09;97908.66;;;13.37
20730;BMP280;10526;50.850;12.928;2023-05-16T10:04:35;97908.19;;;13.91
20730;BMP280;10526;50.850;12.928;2023-05-16T10:08:57;97908.69;;;14.35
20730;BMP280;10526;50.850;12.928;2023-05-16T10:13:29;97898.88;;;14.28
20730;BMP280;10526;50.850;12.928;2023-05-16T10:17:52;97904.06;;;14.35
20730;BMP280;10526;50.850;12.928;2023-05-16T10:22:17;97904.25;;;14.28
20730;BMP280;10526;50.850;12.928;2023-05-16T10:26:40;97908.56;;;14.10
20730;BMP280;10526;50.850;12.928;2023-05-16T10:31:03;97898.84;;;14.16
20730;BMP280;10526;50.850;12.928;2023-05-16T10:35:26;97884.59;;;14.19
20730;BMP280;10526;50.850;12.928;2023-05-16T10:39:50;97890.91;;;14.41
20730;BMP280;10526;50.850;12.928;2023-05-16T10:44:14;97894.06;;;14.94
20730;BMP280;10526;50.850;12.928;2023-05-16T10:48:40;97903.56;;;15.24
20730;BMP280;10526;50.850;12.928;2023-05-16T10:53:33;97902.25;;;15.41
20730;BMP280;10526;50.850;12.928;2023-05-16T10:57:56;97896.94;;;15.54
20730;BMP280;10526;50.850;12.928;2023-05-16T11:02:29;97893.38;;;15.44
20730;BMP280;10526;50.850;12.928;2023-05-16T11:06:54;97888.13;;;16.01
20730;BMP280;10526;50.850;12.928;2023-05-16T11:11:45;97897.19;;;17.04
20730;BMP280;10526;50.850;12.928;2023-05-16T11:16:29;97890.69;;;17.72
20730;BMP280;10526;50.850;12.928;2023-05-16T11:20:51;97887.75;;;17.39
20730;BMP280;10526;50.850;12.928;2023-05-16T11:25:13;97889.94;;;16.91
20730;BMP280;10526;50.850;12.928;2023-05-16T11:29:35;97890.97;;;16.19
20730;BMP280;10526;50.850;12.928;2023-05-16T11:33:58;97883.81;;;15.56
20730;BMP280;10526;50.850;12.928;2023-05-16T11:38:19;97880.56;;;14.85
20730;BMP280;10526;50.850;12.928;2023-05-16T11:42:48;97891.59;;;14.45
20730;BMP280;10526;50.850;12.928;2023-05-16T11:47:11;97892.59;;;14.35
20730;BMP280;10526;50.850;12.928;2023-05-16T11:51:37;97897.25;;;14.47
20730;BMP280;10526;50.850;12.928;2023-05-16T11:56:00;97894.84;;;14.65
20730;BMP280;10526;50.850;12.928;2023-05-16T12:00:24;97897.41;;;14.98
20730;BMP280;10526;50.850;12.928;2023-05-16T12:04:47;97885.84;;;15.27
20730;BMP280;10526;50.850;12.928;2023-05-16T12:09:13;97893.78;;;15.17
20730;BMP280;10526;50.850;12.928;2023-05-16T12:13:39;97900.19;;;14.94
20730;BMP280;10526;50.850;12.928;2023-05-16T12:18:01;97902.56;;;14.92
20730;BMP280;10526;50.850;12.928;2023-05-16T12:22:24;97887.22;;;15.06
20730;BMP280;10526;50.850;12.928;2023-05-16T12:26:46;97893.03;;;15.30
20730;BMP280;10526;50.850;12.928;2023-05-16T12:31:18;97896.03;;;15.70
20730;BMP280;10526;50.850;12.928;2023-05-16T12:35:52;97912.94;;;16.39
20730;BMP280;10526;50.850;12.928;2023-05-16T12:40:15;97932.91;;;16.73
20730;BMP280;10526;50.850;12.928;2023-05-16T12:44:37;97937.00;;;16.65
20730;BMP280;10526;50.850;12.928;2023-05-16T12:49:03;97938.06;;;16.11
20730;BMP280;10526;50.850;12.928;2023-05-16T12:53:29;97928.50;;;15.50
20730;BMP280;10526;50.850;12.928;2023-05-16T12:58:02;97942.00;;;14.92
20730;BMP280;10526;50.850;12.928;2023-05-16T13:02:24;97939.22;;;14.38
20730;BMP280;10526;50.850;12.928;2023-05-16T13:06:47;97952.38;;;13.99
20730;BMP280;10526;50.850;12.928;2023-05-16T13:11:20;97952.03;;;13.81
20730;BMP280;10526;50.850;12.928;2023-05-16T13:15:43;97972.56;;;13.88
20730;BMP280;10526;50.850;12.928;2023-05-16T13:20:06;97971.41;;;14.05
20730;BMP280;10526;50.850;12.928;2023-05-16T13:24:36;97966.44;;;13.87
20730;BMP280;10526;50.850;12.928;2023-05-16T13:28:58;97966.91;;;13.66
20730;BMP280;10526;50.850;12.928;2023-05-16T13:33:22;97980.22;;;13.33
20730;BMP280;10526;50.850;12.928;2023-05-16T13:37:45;97991.84;;;13.23
20730;BMP280;10526;50.850;12.928;2023-05-16T13:42:08;97989.94;;;13.24
20730;BMP280;10526;50.850;12.928;2023-05-16T13:46:30;97989.94;;;13.43
20730;BMP280;10526;50.850;12.928;2023-05-16T13:50:52;97987.84;;;13.87
20730;BMP280;10526;50.850;12.928;2023-05-16T13:55:15;97983.44;;;14.62
20730;BMP280;10526;50.850;12.928;2023-05-16T13:59:37;97977.72;;;15.31
20730;BMP280;10526;50.850;12.928;2023-05-16T14:04:20;97966.91;;;15.72
20730;BMP280;10526;50.850;12.928;2023-05-16T14:08:42;97965.47;;;15.30
20730;BMP280;10526;50.850;12.928;2023-05-16T14:13:04;97957.44;;;14.88
20730;BMP280;10526;50.850;12.928;2023-05-16T14:17:27;97959.81;;;14.86
20730;BMP280;10526;50.850;12.928;2023-05-16T14:21:49;97956.63;;;15.04
20730;BMP280;10526;50.850;12.928;2023-05-16T14:26:13;97964.75;;;15.16
20730;BMP280;10526;50.850;12.928;2023-05-16T14:30:36;97969.66;;;15.31
20730;BMP280;10526;50.850;12.928;2023-05-16T14:34:58;97974.63;;;15.45
20730;BMP280;10526;50.850;12.928;2023-05-16T14:39:20;97972.41;;;15.56
20730;BMP280;10526;50.850;12.928;2023-05-16T14:43:44;97967.66;;;15.60
20730;BMP280;10526;50.850;12.928;2023-05-16T14:48:07;97967.22;;;15.74
20730;BMP280;10526;50.850;12.928;2023-05-16T14:52:29;97960.84;;;16.06
20730;BMP280;10526;50.850;12.928;2023-05-16T14:56:51;97968.66;;;16.83
20730;BMP280;10526;50.850;12.928;2023-05-16T15:01:13;97979.91;;;17.12
20730;BMP280;10526;50.850;12.928;2023-05-16T15:05:37;97980.66;;;16.47
20730;BMP280;10526;50.850;12.928;2023-05-16T15:10:00;97981.72;;;15.64
20730;BMP280;10526;50.850;12.928;2023-05-16T15:14:22;97977.34;;;15.03
20730;BMP280;10526;50.850;12.928;2023-05-16T15:18:45;97986.50;;;14.60
20730;BMP280;10526;50.850;12.928;2023-05-16T15:23:07;97987.47;;;14.21
20730;BMP280;10526;50.850;12.928;2023-05-16T15:27:29;98000.59;;;13.99
20730;BMP280;10526;50.850;12.928;2023-05-16T15:31:51;98005.22;;;14.15
20730;BMP280;10526;50.850;12.928;2023-05-16T15:36:13;97997.84;;;14.19
20730;BMP280;10526;50.850;12.928;2023-05-16T15:40:35;97989.06;;;14.35
20730;BMP280;10526;50.850;12.928;2023-05-16T15:44:57;97984.00;;;14.53
20730;BMP280;10526;50.850;12.928;2023-05-16T15:49:20;97972.94;;;14.68
20730;BMP280;10526;50.850;12.928;2023-05-16T15:53:42;97980.81;;;14.58
20730;BMP280;10526;50.850;12.928;2023-05-16T15:58:05;97975.47;;;14.58
20730;BMP280;10526;50.850;12.928;2023-05-16T16:02:27;97977.13;;;14.52
20730;BMP280;10526;50.850;12.928;2023-05-16T16:06:49;97971.16;;;14.32
20730;BMP280;10526;50.850;12.928;2023-05-16T16:11:12;97962.63;;;14.21
20730;BMP280;10526;50.850;12.928;2023-05-16T16:15:34;97967.47;;;14.10
20730;BMP280;10526;50.850;12.928;2023-05-16T16:19:57;97963.78;;;14.03
20730;BMP280;10526;50.850;12.928;2023-05-16T16:24:19;97960.34;;;13.87
20730;BMP280;10526;50.850;12.928;2023-05-16T16:28:42;97963.38;;;13.53
20730;BMP280;10526;50.850;12.928;2023-05-16T16:33:04;97965.84;;;13.24
20730;BMP280;10526;50.850;12.928;2023-05-16T16:37:26;97966.16;;;13.09
20730;BMP280;10526;50.850;12.928;2023-05-16T16:41:48;97962.06;;;13.05
20730;BMP280;10526;50.850;12.928;2023-05-16T16:46:11;97967.28;;;13.08
20730;BMP280;10526;50.850;12.928;2023-05-16T16:50:34;97966.34;;;13.18
20730;BMP280;10526;50.850;12.928;2023-05-16T16:54:56;97966.97;;;13.26
20730;BMP280;10526;50.850;12.928;2023-05-16T16:59:18;97985.25;;;13.28
20730;BMP280;10526;50.850;12.928;2023-05-16T17:03:41;97996.31;;;13.30
20730;BMP280;10526;50.850;12.928;2023-05-16T17:08:03;98000.25;;;13.25
20730;BMP280;10526;50.850;12.928;2023-05-16T17:12:25;98001.78;;;13.23
20730;BMP280;10526;50.850;12.928;2023-05-16T17:16:49;98009.19;;;13.15
20730;BMP280;10526;50.850;12.928;2023-05-16T17:21:12;97997.56;;;13.05
20730;BMP280;10526;50.850;12.928;2023-05-16T17:25:34;98008.38;;;12.98
20730;BMP280;10526;50.850;12.928;2023-05-16T17:29:57;98002.78;;;12.89
20730;BMP280;10526;50.850;12.928;2023-05-16T17:34:19;97999.91;;;12.80
20730;BMP280;10526;50.850;12.928;2023-05-16T17:38:42;98007.72;;;12.71
20730;BMP280;10526;50.850;12.928;2023-05-16T17:43:04;98010.84;;;12.66
20730;BMP280;10526;50.850;12.928;2023-05-16T17:47:26;98011.28;;;12.60
20730;BMP280;10526;50.850;12.928;2023-05-16T17:51:52;98025.50;;;12.54
20730;BMP280;10526;50.850;12.928;2023-05-16T17:56:14;98026.09;;;12.42
20730;BMP280;10526;50.850;12.928;2023-05-16T18:00:37;98024.38;;;12.28
20730;BMP280;10526;50.850;12.928;2023-05-16T18:04:59;98031.16;;;12.09
20730;BMP280;10526;50.850;12.928;2023-05-16T18:09:21;98028.78;;;11.84
20730;BMP280;10526;50.850;12.928;2023-05-16T18:13:43;98031.34;;;11.64
20730;BMP280;10526;50.850;12.928;2023-05-16T18:18:07;98036.50;;;11.44
20730;BMP280;10526;50.850;12.928;2023-05-16T18:22:29;98029.47;;;11.23
20730;BMP280;10526;50.850;12.928;2023-05-16T18:26:52;98031.22;;;11.00
20730;BMP280;10526;50.850;12.928;2023-05-16T18:31:15;98032.25;;;10.72
20730;BMP280;10526;50.850;12.928;2023-05-16T18:35:37;98036.56;;;10.48
20730;BMP280;10526;50.850;12.928;2023-05-16T18:39:59;98040.56;;;10.22
20730;BMP280;10526;50.850;12.928;2023-05-16T18:44:21;98045.97;;;9.93
20730;BMP280;10526;50.850;12.928;2023-05-16T18:48:43;98046.44;;;9.67
20730;BMP280;10526;50.850;12.928;2023-05-16T18:53:06;98052.59;;;9.42
20730;BMP280;10526;50.850;12.928;2023-05-16T18:57:28;98063.63;;;9.16
20730;BMP280;10526;50.850;12.928;2023-05-16T19:01:51;98071.59;;;8.87
20730;BMP280;10526;50.850;12.928;2023-05-16T19:06:13;98075.34;;;8.61
20730;BMP280;10526;50.850;12.928;2023-05-16T19:10:35;98074.56;;;8.43
20730;BMP280;10526;50.850;12.928;2023-05-16T19:15:02;98080.16;;;8.27
20730;BMP280;10526;50.850;12.928;2023-05-16T19:19:24;98075.91;;;8.05
20730;BMP280;10526;50.850;12.928;2023-05-16T19:23:49;98079.25;;;7.87
20730;BMP280;10526;50.850;12.928;2023-05-16T19:28:13;98084.81;;;7.72
20730;BMP280;10526;50.850;12.928;2023-05-16T19:32:36;98086.28;;;7.62
20730;BMP280;10526;50.850;12.928;2023-05-16T19:36:58;98090.75;;;7.51
20730;BMP280;10526;50.850;12.928;2023-05-16T19:41:22;98097.47;;;7.37
20730;BMP280;10526;50.850;12.928;2023-05-16T19:45:45;98101.13;;;7.26
20730;BMP280;10526;50.850;12.928;2023-05-16T19:50:08;98100.66;;;7.13
20730;BMP280;10526;50.850;12.928;2023-05-16T19:54:30;98111.53;;;7.01
20730;BMP280;10526;50.850;12.928;2023-05-16T19:58:52;98103.84;;;6.88
20730;BMP280;10526;50.850;12.928;2023-05-16T20:03:14;98109.03;;;6.78
20730;BMP280;10526;50.850;12.928;2023-05-16T20:07:37;98120.25;;;6.68
20730;BMP280;10526;50.850;12.928;2023-05-16T20:12:01;98121.69;;;6.58
20730;BMP280;10526;50.850;12.928;2023-05-16T20:16:25;98116.34;;;6.54
20730;BMP280;10526;50.850;12.928;2023-05-16T20:20:47;98115.50;;;6.47
20730;BMP280;10526;50.850;12.928;2023-05-16T20:25:09;98120.81;;;6.47
20730;BMP280;10526;50.850;12.928;2023-05-16T20:29:32;98132.53;;;6.49
20730;BMP280;10526;50.850;12.928;2023-05-16T20:33:55;98131.81;;;6.52
20730;BMP280;10526;50.850;12.928;2023-05-16T20:38:17;98133.28;;;6.50
20730;BMP280;10526;50.850;12.928;2023-05-16T20:42:39;98140.44;;;6.46
20730;BMP280;10526;50.850;12.928;2023-05-16T20:47:02;98150.97;;;6.42
20730;BMP280;10526;50.850;12.928;2023-05-16T20:51:24;98152.81;;;6.38
20730;BMP280;10526;50.850;12.928;2023-05-16T20:55:46;98149.31;;;6.30
20730;BMP280;10526;50.850;12.928;2023-05-16T21:00:09;98148.41;;;6.19
20730;BMP280;10526;50.850;12.928;2023-05-16T21:04:31;98157.00;;;6.13
20730;BMP280;10526;50.850;12.928;2023-05-16T21:08:54;98160.34;;;6.09
20730;BMP280;10526;50.850;12.928;2023-05-16T21:13:16;98169.03;;;6.10
20730;BMP280;10526;50.850;12.928;2023-05-16T21:17:40;98170.16;;;6.09
20730;BMP280;10526;50.850;12.928;2023-05-16T21:22:03;98164.16;;;6.12
20730;BMP280;10526;50.850;12.928;2023-05-16T21:26:25;98167.94;;;6.11
20730;BMP280;10526;50.850;12.928;2023-05-16T21:30:47;98160.34;;;6.09
20730;BMP280;10526;50.850;12.928;2023-05-16T21:35:10;98166.38;;;6.10
20730;BMP280;10526;50.850;12.928;2023-05-16T21:39:32;98161.81;;;6.07
20730;BMP280;10526;50.850;12.928;2023-05-16T21:43:54;98159.47;;;6.02
20730;BMP280;10526;50.850;12.928;2023-05-16T21:48:16;98167.72;;;5.97
20730;BMP280;10526;50.850;12.928;2023-05-16T21:52:41;98166.84;;;5.89
20730;BMP280;10526;50.850;12.928;2023-05-16T21:57:04;98157.69;;;5.83
20730;BMP280;10526;50.850;12.928;2023-05-16T22:01:27;98171.94;;;5.78
20730;BMP280;10526;50.850;12.928;2023-05-16T22:05:50;98175.72;;;5.77
20730;BMP280;10526;50.850;12.928;2023-05-16T22:10:12;98177.56;;;5.73
20730;BMP280;10526;50.850;12.928;2023-05-16T22:14:35;98193.00;;;5.71
20730;BMP280;10526;50.850;12.928;2023-05-16T22:18:57;98186.88;;;5.67
20730;BMP280;10526;50.850;12.928;2023-05-16T22:23:20;98178.88;;;5.64
20730;BMP280;10526;50.850;12.928;2023-05-16T22:27:42;98189.44;;;5.64
20730;BMP280;10526;50.850;12.928;2023-05-16T22:32:09;98186.69;;;5.56
20730;BMP280;10526;50.850;12.928;2023-05-16T22:36:31;98188.88;;;5.51
20730;BMP280;10526;50.850;12.928;2023-05-16T22:40:53;98192.19;;;5.48
20730;BMP280;10526;50.850;12.928;2023-05-16T22:45:16;98194.44;;;5.46
20730;BMP280;10526;50.850;12.928;2023-05-16T22:49:38;98190.84;;;5.35
20730;BMP280;10526;50.850;12.928;2023-05-16T22:54:00;98197.41;;;5.21
20730;BMP280;10526;50.850;12.928;2023-05-16T22:58:22;98200.19;;;5.09
20730;BMP280;10526;50.850;12.928;2023-05-16T23:02:45;98219.50;;;4.94
20730;BMP280;10526;50.850;12.928;2023-05-16T23:07:07;98220.31;;;4.78
20730;BMP280;10526;50.850;12.928;2023-05-16T23:11:30;98226.56;;;4.70
20730;BMP280;10526;50.850;12.928;2023-05-16T23:15:52;98233.41;;;4.56
20730;BMP280;10526;50.850;12.928;2023-05-16T23:20:14;98236.53;;;4.45
20730;BMP280;10526;50.850;12.928;2023-05-16T23:24:36;98227.22;;;4.32
20730;BMP280;10526;50.850;12.928;2023-05-16T23:28:58;98224.41;;;4.25
20730;BMP280;10526;50.850;12.928;2023-05-16T23:33:21;98230.25;;;4.18
20730;BMP280;10526;50.850;12.928;2023-05-16T23:37:43;98225.19;;;4.10
20730;BMP280;10526;50.850;12.928;2023-05-16T23:42:05;98225.63;;;3.96
20730;BMP280;10526;50.850;12.928;2023-05-16T23:46:27;98232.16;;;3.86
20730;BMP280;10526;50.850;12.928;2023-05-16T23:50:49;98233.41;;;3.77
20730;BMP280;10526;50.850;12.928;2023-05-16T23:55:12;98232.50;;;3.69
20730;BMP280;10526;50.850;12.928;2023-05-16T23:59:34;98238.84;;;3.68
